sensor_id;sensor_type;location;lat;lon;timestamp;temperature;humidity
1948;DHT22;974;52.400;9.818;2022-09-02T00:00:11;14.20;99.90
1948;DHT22;974;52.400;9.818;2022-09-02T00:02:37;14.20;99.90
1948;DHT22;974;52.400;9.818;2022-09-02T00:05:03;14.30;99.90
1948;DHT22;974;52.400;9.818;2022-09-02T00:07:29;14.20;99.90
1948;DHT22;974;52.400;9.818;2022-09-02T00:09:55;14.20;99.90
1948;DHT22;974;52.400;9.818;2022-09-02T00:12:21;14.20;99.90
1948;DHT22;974;52.400;9.818;2022-09-02T00:14:46;14.30;99.90
1948;DHT22;974;52.400;9.818;2022-09-02T00:17:12;14.30;99.90
1948;DHT22;974;52.400;9.818;2022-09-02T00:19:38;14.30;99.90
1948;DHT22;974;52.400;9.818;2022-09-02T00:22:03;14.20;99.90
1948;DHT22;974;52.400;9.818;2022-09-02T00:24:29;14.20;99.90
1948;DHT22;974;52.400;9.818;2022-09-02T00:26:54;14.10;99.90
1948;DHT22;974;52.400;9.818;2022-09-02T00:29:20;14.20;99.90
1948;DHT22;974;52.400;9.818;2022-09-02T00:31:46;14.20;99.90
1948;DHT22;974;52.400;9.818;2022-09-02T00:34:12;14.20;99.90
1948;DHT22;974;52.400;9.818;2022-09-02T00:36:38;14.20;99.90
1948;DHT22;974;52.400;9.818;2022-09-02T00:39:05;14.20;99.90
1948;DHT22;974;52.400;9.818;2022-09-02T00:41:33;14.10;99.90
1948;DHT22;974;52.400;9.818;2022-09-02T00:44:04;14.10;99.90
1948;DHT22;974;52.400;9.818;2022-09-02T00:46:31;14.00;99.90
1948;DHT22;974;52.400;9.818;2022-09-02T00:49:05;13.90;99.90
1948;DHT22;974;52.400;9.818;2022-09-02T00:51:38;13.90;99.90
1948;DHT22;974;52.400;9.818;2022-09-02T00:54:06;13.90;99.90
1948;DHT22;974;52.400;9.818;2022-09-02T00:56:33;13.80;99.90
1948;DHT22;974;52.400;9.818;2022-09-02T00:59:01;13.70;99.90
1948;DHT22;974;52.400;9.818;2022-09-02T01:01:27;13.70;99.90
1948;DHT22;974;52.400;9.818;2022-09-02T01:03:52;13.60;99.90
1948;DHT22;974;52.400;9.818;2022-09-02T01:06:25;13.50;99.90
1948;DHT22;974;52.400;9.818;2022-09-02T01:08:57;13.40;99.90
1948;DHT22;974;52.400;9.818;2022-09-02T01:11:28;13.30;99.90
1948;DHT22;974;52.400;9.818;2022-09-02T01:13:57;13.50;99.90
1948;DHT22;974;52.400;9.818;2022-09-02T01:16:37;13.40;99.90
1948;DHT22;974;52.400;9.818;2022-09-02T01:19:09;13.20;99.90
1948;DHT22;974;52.400;9.818;2022-09-02T01:21:35;13.20;99.90
1948;DHT22;974;52.400;9.818;2022-09-02T01:24:01;13.20;99.90
1948;DHT22;974;52.400;9.818;2022-09-02T01:26:27;13.10;99.90
1948;DHT22;974;52.400;9.818;2022-09-02T01:28:52;13.10;99.90
1948;DHT22;974;52.400;9.818;2022-09-02T01:31:18;13.00;99.90
1948;DHT22;974;52.400;9.818;2022-09-02T01:33:43;13.00;99.90
1948;DHT22;974;52.400;9.818;2022-09-02T01:36:09;13.00;99.90
1948;DHT22;974;52.400;9.818;2022-09-02T01:38:35;13.00;99.90
1948;DHT22;974;52.400;9.818;2022-09-02T01:41:01;13.00;99.90
1948;DHT22;974;52.400;9.818;2022-09-02T01:43:27;13.00;99.90
1948;DHT22;974;52.400;9.818;2022-09-02T01:45:54;13.00;99.90
1948;DHT22;974;52.400;9.818;2022-09-02T01:48:21;12.80;99.90
1948;DHT22;974;52.400;9.818;2022-09-02T01:50:51;12.80;99.90
1948;DHT22;974;52.400;9.818;2022-09-02T01:53:17;12.80;99.90
1948;DHT22;974;52.400;9.818;2022-09-02T01:55:43;12.90;99.90
1948;DHT22;974;52.400;9.818;2022-09-02T01:58:09;12.90;99.90
1948;DHT22;974;52.400;9.818;2022-09-02T02:00:34;12.90;99.90
1948;DHT22;974;52.400;9.818;2022-09-02T02:03:00;12.80;99.90
1948;DHT22;974;52.400;9.818;2022-09-02T02:05:26;12.80;99.90
1948;DHT22;974;52.400;9.818;2022-09-02T02:07:51;12.70;99.90
1948;DHT22;974;52.400;9.818;2022-09-02T02:10:19;12.60;99.90
1948;DHT22;974;52.400;9.818;2022-09-02T02:12:44;12.70;99.90
1948;DHT22;974;52.400;9.818;2022-09-02T02:15:14;12.70;99.90
1948;DHT22;974;52.400;9.818;2022-09-02T02:17:40;12.80;99.90
1948;DHT22;974;52.400;9.818;2022-09-02T02:20:07;12.80;99.90
1948;DHT22;974;52.400;9.818;2022-09-02T02:22:33;12.70;99.90
1948;DHT22;974;52.400;9.818;2022-09-02T02:24:59;12.60;99.90
1948;DHT22;974;52.400;9.818;2022-09-02T02:27:25;12.70;99.90
1948;DHT22;974;52.400;9.818;2022-09-02T02:29:50;12.60;99.90
1948;DHT22;974;52.400;9.818;2022-09-02T02:32:16;12.70;99.90
1948;DHT22;974;52.400;9.818;2022-09-02T02:34:46;12.60;99.90
1948;DHT22;974;52.400;9.818;2022-09-02T02:37:12;12.60;99.90
1948;DHT22;974;52.400;9.818;2022-09-02T02:39:42;12.60;99.90
1948;DHT22;974;52.400;9.818;2022-09-02T02:42:08;12.60;99.90
1948;DHT22;974;52.400;9.818;2022-09-02T02:44:34;12.50;99.90
1948;DHT22;974;52.400;9.818;2022-09-02T02:47:00;12.40;99.90
1948;DHT22;974;52.400;9.818;2022-09-02T02:49:26;12.40;99.90
1948;DHT22;974;52.400;9.818;2022-09-02T02:51:52;12.40;99.90
1948;DHT22;974;52.400;9.818;2022-09-02T02:54:18;12.30;99.90
1948;DHT22;974;52.400;9.818;2022-09-02T02:56:44;12.40;99.90
1948;DHT22;974;52.400;9.818;2022-09-02T02:59:10;12.20;99.90
1948;DHT22;974;52.400;9.818;2022-09-02T03:01:35;12.20;99.90
1948;DHT22;974;52.400;9.818;2022-09-02T03:04:01;12.30;99.90
1948;DHT22;974;52.400;9.818;2022-09-02T03:06:27;12.20;99.90
1948;DHT22;974;52.400;9.818;2022-09-02T03:08:54;12.20;99.90
1948;DHT22;974;52.400;9.818;2022-09-02T03:11:21;12.20;99.90
1948;DHT22;974;52.400;9.818;2022-09-02T03:13:51;12.10;99.90
1948;DHT22;974;52.400;9.818;2022-09-02T03:16:17;12.10;99.90
1948;DHT22;974;52.400;9.818;2022-09-02T03:18:45;12.10;99.90
1948;DHT22;974;52.400;9.818;2022-09-02T03:21:11;12.00;99.90
1948;DHT22;974;52.400;9.818;2022-09-02T03:23:38;12.00;99.90
1948;DHT22;974;52.400;9.818;2022-09-02T03:26:09;11.90;99.90
1948;DHT22;974;52.400;9.818;2022-09-02T03:28:35;11.90;99.90
1948;DHT22;974;52.400;9.818;2022-09-02T03:31:01;11.80;99.90
1948;DHT22;974;52.400;9.818;2022-09-02T03:33:26;11.90;99.90
1948;DHT22;974;52.400;9.818;2022-09-02T03:35:52;11.80;99.90
1948;DHT22;974;52.400;9.818;2022-09-02T03:38:17;11.80;99.90
1948;DHT22;974;52.400;9.818;2022-09-02T03:40:43;11.80;99.90
1948;DHT22;974;52.400;9.818;2022-09-02T03:43:09;11.80;99.90
1948;DHT22;974;52.400;9.818;2022-09-02T03:45:34;11.80;99.90
1948;DHT22;974;52.400;9.818;2022-09-02T03:48:01;11.70;99.90
1948;DHT22;974;52.400;9.818;2022-09-02T03:50:32;11.70;99.90
1948;DHT22;974;52.400;9.818;2022-09-02T03:52:58;11.70;99.90
1948;DHT22;974;52.400;9.818;2022-09-02T03:55:25;11.70;99.90
1948;DHT22;974;52.400;9.818;2022-09-02T03:57:51;11.70;99.90
1948;DHT22;974;52.400;9.818;2022-09-02T04:00:19;11.70;99.90
1948;DHT22;974;52.400;9.818;2022-09-02T04:02:45;11.70;99.90
1948;DHT22;974;52.400;9.818;2022-09-02T04:05:11;11.60;99.90
1948;DHT22;974;52.400;9.818;2022-09-02T04:07:38;11.60;99.90
1948;DHT22;974;52.400;9.818;2022-09-02T04:10:04;11.60;99.90
1948;DHT22;974;52.400;9.818;2022-09-02T04:12:31;11.50;99.90
1948;DHT22;974;52.400;9.818;2022-09-02T04:14:56;11.50;99.90
1948;DHT22;974;52.400;9.818;2022-09-02T04:17:22;11.60;99.90
1948;DHT22;974;52.400;9.818;2022-09-02T04:19:47;11.50;99.90
1948;DHT22;974;52.400;9.818;2022-09-02T04:22:13;11.40;99.90
1948;DHT22;974;52.400;9.818;2022-09-02T04:24:38;11.50;99.90
1948;DHT22;974;52.400;9.818;2022-09-02T04:27:04;11.40;99.90
1948;DHT22;974;52.400;9.818;2022-09-02T04:29:29;11.30;99.90
1948;DHT22;974;52.400;9.818;2022-09-02T04:31:56;11.40;99.90
1948;DHT22;974;52.400;9.818;2022-09-02T04:34:21;11.40;99.90
1948;DHT22;974;52.400;9.818;2022-09-02T04:36:47;11.30;99.90
1948;DHT22;974;52.400;9.818;2022-09-02T04:39:13;11.30;99.90
1948;DHT22;974;52.400;9.818;2022-09-02T04:41:38;11.50;99.90
1948;DHT22;974;52.400;9.818;2022-09-02T04:44:04;11.40;99.90
1948;DHT22;974;52.400;9.818;2022-09-02T04:46:31;11.30;99.90
1948;DHT22;974;52.400;9.818;2022-09-02T04:48:57;11.40;99.90
1948;DHT22;974;52.400;9.818;2022-09-02T04:51:24;11.30;99.90
1948;DHT22;974;52.400;9.818;2022-09-02T04:53:51;11.30;99.90
1948;DHT22;974;52.400;9.818;2022-09-02T04:56:21;11.30;99.90
1948;DHT22;974;52.400;9.818;2022-09-02T04:58:48;11.30;99.90
1948;DHT22;974;52.400;9.818;2022-09-02T05:01:27;11.20;99.90
1948;DHT22;974;52.400;9.818;2022-09-02T05:03:53;11.20;99.90
1948;DHT22;974;52.400;9.818;2022-09-02T05:06:21;11.20;99.90
1948;DHT22;974;52.400;9.818;2022-09-02T05:08:47;11.20;99.90
1948;DHT22;974;52.400;9.818;2022-09-02T05:11:19;11.30;99.90
1948;DHT22;974;52.400;9.818;2022-09-02T05:13:46;11.20;99.90
1948;DHT22;974;52.400;9.818;2022-09-02T05:16:17;11.30;99.90
1948;DHT22;974;52.400;9.818;2022-09-02T05:18:44;11.40;99.90
1948;DHT22;974;52.400;9.818;2022-09-02T05:21:09;11.30;99.90
1948;DHT22;974;52.400;9.818;2022-09-02T05:23:35;11.30;99.90
1948;DHT22;974;52.400;9.818;2022-09-02T05:26:05;11.30;99.90
1948;DHT22;974;52.400;9.818;2022-09-02T05:28:32;11.30;99.90
1948;DHT22;974;52.400;9.818;2022-09-02T05:31:03;11.40;99.90
1948;DHT22;974;52.400;9.818;2022-09-02T05:33:30;11.40;99.90
1948;DHT22;974;52.400;9.818;2022-09-02T05:35:56;11.50;99.90
1948;DHT22;974;52.400;9.818;2022-09-02T05:38:21;11.40;99.90
1948;DHT22;974;52.400;9.818;2022-09-02T05:40:47;11.40;99.90
1948;DHT22;974;52.400;9.818;2022-09-02T05:43:12;11.50;99.90
1948;DHT22;974;52.400;9.818;2022-09-02T05:45:38;11.50;99.90
1948;DHT22;974;52.400;9.818;2022-09-02T05:48:04;11.70;99.90
1948;DHT22;974;52.400;9.818;2022-09-02T05:50:50;11.60;99.90
1948;DHT22;974;52.400;9.818;2022-09-02T05:53:15;11.70;99.90
1948;DHT22;974;52.400;9.818;2022-09-02T05:55:41;11.70;99.90
1948;DHT22;974;52.400;9.818;2022-09-02T05:58:07;11.70;99.90
1948;DHT22;974;52.400;9.818;2022-09-02T06:00:32;11.80;99.90
1948;DHT22;974;52.400;9.818;2022-09-02T06:02:58;11.90;99.90
1948;DHT22;974;52.400;9.818;2022-09-02T06:05:23;12.00;99.90
1948;DHT22;974;52.400;9.818;2022-09-02T06:07:49;12.10;99.90
1948;DHT22;974;52.400;9.818;2022-09-02T06:10:14;12.10;99.90
1948;DHT22;974;52.400;9.818;2022-09-02T06:12:40;12.20;99.90
1948;DHT22;974;52.400;9.818;2022-09-02T06:15:07;12.30;99.90
1948;DHT22;974;52.400;9.818;2022-09-02T06:17:32;12.30;99.90
1948;DHT22;974;52.400;9.818;2022-09-02T06:19:58;12.40;99.90
1948;DHT22;974;52.400;9.818;2022-09-02T06:22:23;12.50;99.90
1948;DHT22;974;52.400;9.818;2022-09-02T06:24:49;12.60;99.90
1948;DHT22;974;52.400;9.818;2022-09-02T06:27:16;12.60;99.90
1948;DHT22;974;52.400;9.818;2022-09-02T06:29:42;12.60;99.90
1948;DHT22;974;52.400;9.818;2022-09-02T06:32:07;12.80;99.90
1948;DHT22;974;52.400;9.818;2022-09-02T06:34:33;12.80;99.90
1948;DHT22;974;52.400;9.818;2022-09-02T06:36:59;12.80;99.90
1948;DHT22;974;52.400;9.818;2022-09-02T06:39:25;12.90;99.90
1948;DHT22;974;52.400;9.818;2022-09-02T06:41:51;13.00;99.90
1948;DHT22;974;52.400;9.818;2022-09-02T06:44:18;13.10;99.90
1948;DHT22;974;52.400;9.818;2022-09-02T06:46:51;13.10;99.90
1948;DHT22;974;52.400;9.818;2022-09-02T06:49:17;13.20;99.90
1948;DHT22;974;52.400;9.818;2022-09-02T06:51:45;13.20;99.90
1948;DHT22;974;52.400;9.818;2022-09-02T06:54:14;13.30;99.90
1948;DHT22;974;52.400;9.818;2022-09-02T06:56:41;13.30;99.90
1948;DHT22;974;52.400;9.818;2022-09-02T06:59:08;13.40;99.90
1948;DHT22;974;52.400;9.818;2022-09-02T07:01:33;13.50;99.90
1948;DHT22;974;52.400;9.818;2022-09-02T07:03:59;13.60;99.90
1948;DHT22;974;52.400;9.818;2022-09-02T07:06:49;13.70;99.90
1948;DHT22;974;52.400;9.818;2022-09-02T07:09:18;13.80;99.90
1948;DHT22;974;52.400;9.818;2022-09-02T07:11:45;13.80;99.90
1948;DHT22;974;52.400;9.818;2022-09-02T07:14:17;13.90;99.90
1948;DHT22;974;52.400;9.818;2022-09-02T07:16:49;14.00;99.90
1948;DHT22;974;52.400;9.818;2022-09-02T07:19:15;14.10;99.90
1948;DHT22;974;52.400;9.818;2022-09-02T07:21:41;14.20;99.90
1948;DHT22;974;52.400;9.818;2022-09-02T07:24:08;14.20;99.90
1948;DHT22;974;52.400;9.818;2022-09-02T07:26:35;14.30;99.90
1948;DHT22;974;52.400;9.818;2022-09-02T07:29:01;14.40;99.90
1948;DHT22;974;52.400;9.818;2022-09-02T07:31:27;14.50;99.90
1948;DHT22;974;52.400;9.818;2022-09-02T07:33:54;14.50;99.90
1948;DHT22;974;52.400;9.818;2022-09-02T07:36:24;14.60;99.90
1948;DHT22;974;52.400;9.818;2022-09-02T07:38:49;14.70;99.90
1948;DHT22;974;52.400;9.818;2022-09-02T07:41:15;14.80;99.90
1948;DHT22;974;52.400;9.818;2022-09-02T07:43:41;14.90;99.90
1948;DHT22;974;52.400;9.818;2022-09-02T07:46:06;15.00;99.90
1948;DHT22;974;52.400;9.818;2022-09-02T07:48:33;15.10;99.90
1948;DHT22;974;52.400;9.818;2022-09-02T07:50:58;15.20;99.90
1948;DHT22;974;52.400;9.818;2022-09-02T07:53:24;15.20;99.90
1948;DHT22;974;52.400;9.818;2022-09-02T07:55:50;15.30;99.90
1948;DHT22;974;52.400;9.818;2022-09-02T07:58:17;15.40;99.90
1948;DHT22;974;52.400;9.818;2022-09-02T08:00:44;15.50;99.90
1948;DHT22;974;52.400;9.818;2022-09-02T08:03:10;15.60;99.90
1948;DHT22;974;52.400;9.818;2022-09-02T08:05:36;15.70;99.90
1948;DHT22;974;52.400;9.818;2022-09-02T08:08:02;15.80;99.90
1948;DHT22;974;52.400;9.818;2022-09-02T08:10:28;15.90;99.90
1948;DHT22;974;52.400;9.818;2022-09-02T08:12:56;15.90;99.90
1948;DHT22;974;52.400;9.818;2022-09-02T08:15:23;16.00;99.90
1948;DHT22;974;52.400;9.818;2022-09-02T08:17:50;16.10;99.90
1948;DHT22;974;52.400;9.818;2022-09-02T08:20:16;16.20;99.90
1948;DHT22;974;52.400;9.818;2022-09-02T08:22:42;16.20;99.90
1948;DHT22;974;52.400;9.818;2022-09-02T08:25:08;16.30;99.90
1948;DHT22;974;52.400;9.818;2022-09-02T08:27:35;16.50;99.90
1948;DHT22;974;52.400;9.818;2022-09-02T08:30:02;16.60;99.90
1948;DHT22;974;52.400;9.818;2022-09-02T08:32:28;16.70;99.90
1948;DHT22;974;52.400;9.818;2022-09-02T08:34:54;16.70;99.90
1948;DHT22;974;52.400;9.818;2022-09-02T08:37:19;16.90;99.90
1948;DHT22;974;52.400;9.818;2022-09-02T08:39:46;17.00;99.90
1948;DHT22;974;52.400;9.818;2022-09-02T08:44:44;17.20;99.90
1948;DHT22;974;52.400;9.818;2022-09-02T08:47:15;17.20;99.90
1948;DHT22;974;52.400;9.818;2022-09-02T08:50:10;17.40;99.90
1948;DHT22;974;52.400;9.818;2022-09-02T08:53:06;17.50;99.90
1948;DHT22;974;52.400;9.818;2022-09-02T08:55:43;17.60;99.90
1948;DHT22;974;52.400;9.818;2022-09-02T08:58:13;17.70;99.90
1948;DHT22;974;52.400;9.818;2022-09-02T09:00:41;17.70;99.90
1948;DHT22;974;52.400;9.818;2022-09-02T09:08:59;18.10;99.90
1948;DHT22;974;52.400;9.818;2022-09-02T09:19:51;18.40;99.90
1948;DHT22;974;52.400;9.818;2022-09-02T09:22:37;18.60;99.90
1948;DHT22;974;52.400;9.818;2022-09-02T09:25:09;18.70;99.90
1948;DHT22;974;52.400;9.818;2022-09-02T09:27:35;18.90;99.90
1948;DHT22;974;52.400;9.818;2022-09-02T09:30:01;18.90;99.90
1948;DHT22;974;52.400;9.818;2022-09-02T09:32:33;19.20;99.90
1948;DHT22;974;52.400;9.818;2022-09-02T09:35:08;19.30;99.90
1948;DHT22;974;52.400;9.818;2022-09-02T09:37:35;19.30;99.90
1948;DHT22;974;52.400;9.818;2022-09-02T09:42:46;19.60;99.90
1948;DHT22;974;52.400;9.818;2022-09-02T09:45:19;19.70;99.90
1948;DHT22;974;52.400;9.818;2022-09-02T09:48:24;19.80;99.90
1948;DHT22;974;52.400;9.818;2022-09-02T09:53:33;20.00;99.90
1948;DHT22;974;52.400;9.818;2022-09-02T09:56:01;20.20;99.90
1948;DHT22;974;52.400;9.818;2022-09-02T10:01:18;20.30;99.90
1948;DHT22;974;52.400;9.818;2022-09-02T10:03:50;20.40;99.90
1948;DHT22;974;52.400;9.818;2022-09-02T10:11:57;20.70;99.90
1948;DHT22;974;52.400;9.818;2022-09-02T10:14:31;20.80;99.90
1948;DHT22;974;52.400;9.818;2022-09-02T10:19:43;21.00;99.90
1948;DHT22;974;52.400;9.818;2022-09-02T10:22:31;21.10;99.60
1948;DHT22;974;52.400;9.818;2022-09-02T10:31:10;21.30;98.40
1948;DHT22;974;52.400;9.818;2022-09-02T10:36:20;21.40;97.60
1948;DHT22;974;52.400;9.818;2022-09-02T10:38:53;21.50;97.40
1948;DHT22;974;52.400;9.818;2022-09-02T10:41:42;21.50;96.60
1948;DHT22;974;52.400;9.818;2022-09-02T10:47:35;21.70;96.30
1948;DHT22;974;52.400;9.818;2022-09-02T10:50:20;21.80;95.90
1948;DHT22;974;52.400;9.818;2022-09-02T10:53:00;21.90;95.40
1948;DHT22;974;52.400;9.818;2022-09-02T10:55:42;22.00;95.80
1948;DHT22;974;52.400;9.818;2022-09-02T10:58:17;22.20;95.20
1948;DHT22;974;52.400;9.818;2022-09-02T11:00:46;22.30;95.40
1948;DHT22;974;52.400;9.818;2022-09-02T11:03:24;22.50;94.70
1948;DHT22;974;52.400;9.818;2022-09-02T11:05:57;22.50;93.20
1948;DHT22;974;52.400;9.818;2022-09-02T11:11:26;22.70;92.20
1948;DHT22;974;52.400;9.818;2022-09-02T11:16:44;22.90;91.10
1948;DHT22;974;52.400;9.818;2022-09-02T11:19:34;23.10;90.80
1948;DHT22;974;52.400;9.818;2022-09-02T11:25:15;23.40;90.50
1948;DHT22;974;52.400;9.818;2022-09-02T11:30:44;23.80;85.40
1948;DHT22;974;52.400;9.818;2022-09-02T11:33:28;24.50;86.80
1948;DHT22;974;52.400;9.818;2022-09-02T11:35:57;29.20;83.90
1948;DHT22;974;52.400;9.818;2022-09-02T11:38:36;34.80;66.20
1948;DHT22;974;52.400;9.818;2022-09-02T11:43:59;40.20;40.70
1948;DHT22;974;52.400;9.818;2022-09-02T11:46:50;43.00;32.40
1948;DHT22;974;52.400;9.818;2022-09-02T11:54:46;46.60;24.20
1948;DHT22;974;52.400;9.818;2022-09-02T11:57:20;48.90;22.90
1948;DHT22;974;52.400;9.818;2022-09-02T12:07:55;46.00;21.60
1948;DHT22;974;52.400;9.818;2022-09-02T12:13:09;42.80;22.60
1948;DHT22;974;52.400;9.818;2022-09-02T12:15:37;41.70;20.10
1948;DHT22;974;52.400;9.818;2022-09-02T12:18:10;41.10;22.50
1948;DHT22;974;52.400;9.818;2022-09-02T12:23:03;46.20;20.20
1948;DHT22;974;52.400;9.818;2022-09-02T12:28:22;45.30;20.90
1948;DHT22;974;52.400;9.818;2022-09-02T12:33:36;45.50;18.60
1948;DHT22;974;52.400;9.818;2022-09-02T12:36:04;41.20;19.60
1948;DHT22;974;52.400;9.818;2022-09-02T12:38:35;36.90;22.10
1948;DHT22;974;52.400;9.818;2022-09-02T12:51:57;33.80;27.30
1948;DHT22;974;52.400;9.818;2022-09-02T12:56:52;30.90;29.50
1948;DHT22;974;52.400;9.818;2022-09-02T12:59:30;29.40;30.00
1948;DHT22;974;52.400;9.818;2022-09-02T13:07:49;28.10;33.70
1948;DHT22;974;52.400;9.818;2022-09-02T13:13:47;28.20;35.30
1948;DHT22;974;52.400;9.818;2022-09-02T13:16:26;28.20;35.20
1948;DHT22;974;52.400;9.818;2022-09-02T13:25:04;28.20;36.40
1948;DHT22;974;52.400;9.818;2022-09-02T13:30:40;27.90;36.50
1948;DHT22;974;52.400;9.818;2022-09-02T13:33:16;27.80;37.20
1948;DHT22;974;52.400;9.818;2022-09-02T13:35:42;27.50;37.40
1948;DHT22;974;52.400;9.818;2022-09-02T13:38:11;26.90;37.60
1948;DHT22;974;52.400;9.818;2022-09-02T13:40:38;26.60;38.50
1948;DHT22;974;52.400;9.818;2022-09-02T13:43:17;26.00;39.30
1948;DHT22;974;52.400;9.818;2022-09-02T13:45:43;25.70;39.60
1948;DHT22;974;52.400;9.818;2022-09-02T13:48:17;25.70;40.10
1948;DHT22;974;52.400;9.818;2022-09-02T13:50:45;25.80;40.10
1948;DHT22;974;52.400;9.818;2022-09-02T13:53:31;26.00;39.70
1948;DHT22;974;52.400;9.818;2022-09-02T13:55:58;26.20;39.40
1948;DHT22;974;52.400;9.818;2022-09-02T13:58:34;26.10;38.90
1948;DHT22;974;52.400;9.818;2022-09-02T14:01:28;25.90;40.00
1948;DHT22;974;52.400;9.818;2022-09-02T14:03:56;25.80;40.90
1948;DHT22;974;52.400;9.818;2022-09-02T14:06:25;25.60;39.70
1948;DHT22;974;52.400;9.818;2022-09-02T14:08:55;25.40;40.00
1948;DHT22;974;52.400;9.818;2022-09-02T14:11:22;25.10;39.50
1948;DHT22;974;52.400;9.818;2022-09-02T14:13:49;25.00;39.90
1948;DHT22;974;52.400;9.818;2022-09-02T14:16:33;24.90;39.80
1948;DHT22;974;52.400;9.818;2022-09-02T14:21:28;24.80;40.40
1948;DHT22;974;52.400;9.818;2022-09-02T14:23:54;24.80;40.40
1948;DHT22;974;52.400;9.818;2022-09-02T14:29:00;24.80;40.90
1948;DHT22;974;52.400;9.818;2022-09-02T14:31:28;24.80;40.60
1948;DHT22;974;52.400;9.818;2022-09-02T14:33:59;24.90;40.40
1948;DHT22;974;52.400;9.818;2022-09-02T14:36:36;24.90;39.50
1948;DHT22;974;52.400;9.818;2022-09-02T14:39:14;24.80;39.30
1948;DHT22;974;52.400;9.818;2022-09-02T14:41:50;24.70;39.40
1948;DHT22;974;52.400;9.818;2022-09-02T14:44:31;24.60;39.60
1948;DHT22;974;52.400;9.818;2022-09-02T14:47:00;24.50;40.60
1948;DHT22;974;52.400;9.818;2022-09-02T14:49:33;24.50;41.20
1948;DHT22;974;52.400;9.818;2022-09-02T14:52:04;24.40;41.30
1948;DHT22;974;52.400;9.818;2022-09-02T14:54:40;24.40;41.20
1948;DHT22;974;52.400;9.818;2022-09-02T14:59:49;24.10;42.40
1948;DHT22;974;52.400;9.818;2022-09-02T15:05:04;23.90;42.10
1948;DHT22;974;52.400;9.818;2022-09-02T15:07:30;23.80;42.90
1948;DHT22;974;52.400;9.818;2022-09-02T15:09:56;23.80;42.90
1948;DHT22;974;52.400;9.818;2022-09-02T15:12:29;23.60;43.10
1948;DHT22;974;52.400;9.818;2022-09-02T15:14:56;23.60;43.00
1948;DHT22;974;52.400;9.818;2022-09-02T15:17:22;23.50;42.40
1948;DHT22;974;52.400;9.818;2022-09-02T15:19:48;23.60;42.60
1948;DHT22;974;52.400;9.818;2022-09-02T15:22:15;23.60;43.10
1948;DHT22;974;52.400;9.818;2022-09-02T15:24:41;23.60;43.20
1948;DHT22;974;52.400;9.818;2022-09-02T15:27:08;23.50;43.60
1948;DHT22;974;52.400;9.818;2022-09-02T15:29:34;23.60;43.20
1948;DHT22;974;52.400;9.818;2022-09-02T15:31:59;23.60;43.00
1948;DHT22;974;52.400;9.818;2022-09-02T15:34:27;23.50;43.10
1948;DHT22;974;52.400;9.818;2022-09-02T15:36:52;23.50;43.50
1948;DHT22;974;52.400;9.818;2022-09-02T15:39:19;23.40;43.30
1948;DHT22;974;52.400;9.818;2022-09-02T15:41:45;23.40;43.40
1948;DHT22;974;52.400;9.818;2022-09-02T15:44:11;23.30;43.70
1948;DHT22;974;52.400;9.818;2022-09-02T15:46:37;23.30;43.90
1948;DHT22;974;52.400;9.818;2022-09-02T15:49:05;23.30;44.30
1948;DHT22;974;52.400;9.818;2022-09-02T15:51:31;23.20;44.90
1948;DHT22;974;52.400;9.818;2022-09-02T15:54:00;23.20;44.60
1948;DHT22;974;52.400;9.818;2022-09-02T15:56:28;23.10;44.60
1948;DHT22;974;52.400;9.818;2022-09-02T15:58:58;23.10;44.80
1948;DHT22;974;52.400;9.818;2022-09-02T16:01:27;23.10;45.20
1948;DHT22;974;52.400;9.818;2022-09-02T16:03:53;22.90;45.30
1948;DHT22;974;52.400;9.818;2022-09-02T16:06:18;22.80;46.50
1948;DHT22;974;52.400;9.818;2022-09-02T16:08:44;22.70;46.60
1948;DHT22;974;52.400;9.818;2022-09-02T16:11:09;22.50;47.00
1948;DHT22;974;52.400;9.818;2022-09-02T16:13:35;22.40;46.40
1948;DHT22;974;52.400;9.818;2022-09-02T16:16:03;22.40;46.80
1948;DHT22;974;52.400;9.818;2022-09-02T16:18:29;22.50;47.70
1948;DHT22;974;52.400;9.818;2022-09-02T16:20:55;22.70;47.20
1948;DHT22;974;52.400;9.818;2022-09-02T16:23:20;22.80;47.30
1948;DHT22;974;52.400;9.818;2022-09-02T16:25:46;22.80;46.50
1948;DHT22;974;52.400;9.818;2022-09-02T16:28:11;22.90;45.90
1948;DHT22;974;52.400;9.818;2022-09-02T16:30:37;22.90;45.80
1948;DHT22;974;52.400;9.818;2022-09-02T16:33:03;22.80;45.40
1948;DHT22;974;52.400;9.818;2022-09-02T16:35:28;22.90;45.90
1948;DHT22;974;52.400;9.818;2022-09-02T16:37:53;22.90;45.50
1948;DHT22;974;52.400;9.818;2022-09-02T16:40:21;22.80;45.90
1948;DHT22;974;52.400;9.818;2022-09-02T16:42:47;22.70;46.10
1948;DHT22;974;52.400;9.818;2022-09-02T16:45:13;22.70;46.50
1948;DHT22;974;52.400;9.818;2022-09-02T16:47:38;22.60;46.00
1948;DHT22;974;52.400;9.818;2022-09-02T16:50:04;22.40;45.70
1948;DHT22;974;52.400;9.818;2022-09-02T16:52:30;22.30;46.00
1948;DHT22;974;52.400;9.818;2022-09-02T16:54:59;22.30;46.40
1948;DHT22;974;52.400;9.818;2022-09-02T16:57:24;22.20;46.60
1948;DHT22;974;52.400;9.818;2022-09-02T16:59:50;22.10;46.80
1948;DHT22;974;52.400;9.818;2022-09-02T17:02:16;22.00;46.60
1948;DHT22;974;52.400;9.818;2022-09-02T17:04:41;22.00;46.80
1948;DHT22;974;52.400;9.818;2022-09-02T17:07:07;22.00;46.70
1948;DHT22;974;52.400;9.818;2022-09-02T17:09:33;21.90;46.70
1948;DHT22;974;52.400;9.818;2022-09-02T17:11:59;21.90;46.40
1948;DHT22;974;52.400;9.818;2022-09-02T17:14:25;21.80;46.70
1948;DHT22;974;52.400;9.818;2022-09-02T17:16:50;21.80;46.60
1948;DHT22;974;52.400;9.818;2022-09-02T17:19:17;21.70;46.60
1948;DHT22;974;52.400;9.818;2022-09-02T17:21:50;21.70;46.60
1948;DHT22;974;52.400;9.818;2022-09-02T17:24:17;21.60;46.50
1948;DHT22;974;52.400;9.818;2022-09-02T17:26:46;21.60;46.70
1948;DHT22;974;52.400;9.818;2022-09-02T17:29:14;21.50;47.10
1948;DHT22;974;52.400;9.818;2022-09-02T17:31:44;21.50;47.30
1948;DHT22;974;52.400;9.818;2022-09-02T17:34:10;21.40;47.20
1948;DHT22;974;52.400;9.818;2022-09-02T17:36:37;21.30;47.50
1948;DHT22;974;52.400;9.818;2022-09-02T17:39:09;21.20;47.50
1948;DHT22;974;52.400;9.818;2022-09-02T17:41:35;21.10;47.90
1948;DHT22;974;52.400;9.818;2022-09-02T17:44:30;21.10;47.90
1948;DHT22;974;52.400;9.818;2022-09-02T17:46:58;21.00;48.40
1948;DHT22;974;52.400;9.818;2022-09-02T17:49:24;20.90;48.80
1948;DHT22;974;52.400;9.818;2022-09-02T17:51:49;20.80;48.90
1948;DHT22;974;52.400;9.818;2022-09-02T17:54:15;20.70;49.10
1948;DHT22;974;52.400;9.818;2022-09-02T18:10:35;20.30;50.30
1948;DHT22;974;52.400;9.818;2022-09-02T18:13:06;20.20;50.70
1948;DHT22;974;52.400;9.818;2022-09-02T18:15:40;20.20;51.00
1948;DHT22;974;52.400;9.818;2022-09-02T18:18:09;20.20;50.80
1948;DHT22;974;52.400;9.818;2022-09-02T18:20:41;20.10;51.00
1948;DHT22;974;52.400;9.818;2022-09-02T18:26:43;20.00;51.30
1948;DHT22;974;52.400;9.818;2022-09-02T18:38:21;19.90;51.60
1948;DHT22;974;52.400;9.818;2022-09-02T18:43:36;19.80;52.10
1948;DHT22;974;52.400;9.818;2022-09-02T18:46:04;19.70;52.30
1948;DHT22;974;52.400;9.818;2022-09-02T18:48:34;19.70;52.40
1948;DHT22;974;52.400;9.818;2022-09-02T18:53:50;19.60;52.90
1948;DHT22;974;52.400;9.818;2022-09-02T18:56:18;19.50;53.10
1948;DHT22;974;52.400;9.818;2022-09-02T18:58:52;19.50;53.40
1948;DHT22;974;52.400;9.818;2022-09-02T19:01:23;19.40;53.60
1948;DHT22;974;52.400;9.818;2022-09-02T19:03:49;19.30;53.60